Time;durP1;ratioP1;P1;durP2;ratioP2;P2;SDS_P1;SDS_P2;PMS_P1;PMS_P2;Temp;Humidity;BMP_temperature;BMP_pressure;BME280_temperature;BME280_humidity;BME280_pressure;Samples;Min_cycle;Max_cycle;Signal;HPM_P1;HPM_P2
2021/07/24 00:01:30;;;;;;;;;;;16.60;99.90;;;15.31;83.67;100843.25;3508383;40;103106;-41
2021/07/24 00:03:57;;;;;;;;;;;16.60;99.90;;;15.29;84.33;100836.34;3508351;40;102266;-37
2021/07/24 00:06:43;;;;;;;;;;;16.60;99.90;;;15.27;84.48;100833.03;3508480;40;103573;-40
2021/07/24 00:09:10;;;;;;;;;;;16.50;99.90;;;15.25;85.07;100841.50;3508204;40;102453;-41
2021/07/24 00:11:37;;;;;;;;;;;16.50;99.90;;;15.22;85.33;100839.25;3508452;40;103891;-40
2021/07/24 00:14:04;;;;;;;;;;;16.50;99.90;;;15.20;85.43;100835.91;3508753;40;102377;-40
2021/07/24 00:16:32;;;;;;;;;;;16.40;99.90;;;15.16;84.98;100823.72;3508038;40;103281;-40
2021/07/24 00:18:59;;;;;;;;;;;16.40;99.90;;;15.12;85.45;100817.03;3508419;40;102434;-40
2021/07/24 00:21:26;;;;;;;;;;;16.40;99.90;;;15.06;85.38;100811.44;3509427;40;102259;-40
2021/07/24 00:23:53;;;;;;;;;;;16.30;99.90;;;15.01;85.65;100802.28;3509274;40;102337;-38
2021/07/24 00:26:20;;;;;;;;;;;16.30;99.90;;;14.98;86.14;100806.31;3509605;40;103004;-40
2021/07/24 00:28:49;;;;;;;;;;;16.30;99.90;;;14.96;86.13;100790.06;3509311;40;102230;-39
2021/07/24 00:31:16;;;;;;;;;;;16.20;99.90;;;14.93;85.98;100790.56;3509370;40;103112;-40
2021/07/24 00:33:49;;;;;;;;;;;16.20;99.90;;;14.91;86.31;100786.41;3509164;40;102400;-40
2021/07/24 00:36:16;;;;;;;;;;;16.20;99.90;;;14.90;86.36;100790.22;3509457;40;103384;-40
2021/07/24 00:38:43;;;;;;;;;;;16.20;99.90;;;14.88;86.10;100784.16;3509652;40;102139;-40
2021/07/24 00:41:19;;;;;;;;;;;16.20;99.90;;;14.86;86.31;100778.88;3509192;40;102073;-40
2021/07/24 00:43:50;;;;;;;;;;;16.20;99.90;;;14.84;86.31;100788.44;3509692;40;102249;-40
2021/07/24 00:46:21;;;;;;;;;;;16.10;99.90;;;14.81;86.37;100801.56;3509717;39;104170;-40
2021/07/24 00:48:51;;;;;;;;;;;16.10;99.90;;;14.74;86.66;100806.38;3508041;40;102811;-39
2021/07/24 00:51:33;;;;;;;;;;;16.00;99.90;;;14.70;86.85;100794.16;3508114;40;102419;-40
2021/07/24 00:54:01;;;;;;;;;;;16.00;99.90;;;14.68;86.78;100796.31;3509032;40;102353;-40
2021/07/24 00:56:29;;;;;;;;;;;16.00;99.90;;;14.64;87.05;100795.13;3508684;40;102245;-40
2021/07/24 00:58:56;;;;;;;;;;;15.90;99.90;;;14.59;87.03;100808.75;3509217;40;102648;-40
2021/07/24 01:01:27;;;;;;;;;;;15.90;99.90;;;14.54;86.88;100809.47;3508032;40;102250;-39
2021/07/24 01:03:54;;;;;;;;;;;15.80;99.90;;;14.49;86.95;100798.38;3509445;40;102922;-38
2021/07/24 01:06:24;;;;;;;;;;;15.80;99.90;;;14.46;87.17;100799.69;3509255;40;102884;-40
2021/07/24 01:08:52;;;;;;;;;;;15.80;99.90;;;14.39;87.64;100797.03;3508060;40;102150;-40
2021/07/24 01:11:20;;;;;;;;;;;15.70;99.90;;;14.36;88.05;100789.28;3508942;40;103243;-40
2021/07/24 01:13:49;;;;;;;;;;;15.70;99.90;;;14.34;88.48;100782.38;3507924;40;102265;-40
2021/07/24 01:16:16;;;;;;;;;;;15.60;99.90;;;14.33;88.30;100777.97;3509156;40;103334;-40
2021/07/24 01:18:44;;;;;;;;;;;15.60;99.90;;;14.31;88.09;100780.09;3507870;40;102365;-40
2021/07/24 01:21:25;;;;;;;;;;;15.60;99.90;;;14.26;87.70;100774.50;3507923;40;103391;-40
2021/07/24 01:23:53;;;;;;;;;;;15.60;99.90;;;14.27;87.95;100778.91;3507856;40;102476;-38
2021/07/24 01:26:25;;;;;;;;;;;15.60;99.90;;;14.25;88.06;100781.91;3509307;40;102094;-40
2021/07/24 01:28:54;;;;;;;;;;;15.60;99.90;;;14.23;88.04;100789.53;3509119;40;102776;-40
2021/07/24 01:31:23;;;;;;;;;;;15.50;99.90;;;14.19;87.94;100783.69;3507283;40;103170;-40
2021/07/24 01:33:51;;;;;;;;;;;15.50;99.90;;;14.16;88.20;100786.91;3508026;40;102897;-40
2021/07/24 01:36:19;;;;;;;;;;;15.50;99.90;;;14.15;88.08;100787.97;3509301;40;104177;-40
2021/07/24 01:38:46;;;;;;;;;;;15.40;99.90;;;14.09;88.28;100786.19;3509068;40;102834;-40
2021/07/24 01:41:15;;;;;;;;;;;15.40;99.90;;;14.06;88.24;100778.44;3507830;40;103116;-39
2021/07/24 01:43:44;;;;;;;;;;;15.40;99.90;;;14.05;88.56;100771.25;3508926;40;102539;-40
2021/07/24 01:46:14;;;;;;;;;;;15.40;99.90;;;14.01;88.80;100773.66;3508631;40;102298;-40
2021/07/24 01:55:00;;;;;;;;;;;15.30;99.90;;;13.95;88.77;100780.91;3472297;39;102375;-38
2021/07/24 01:57:30;;;;;;;;;;;15.30;99.90;;;13.94;89.00;100776.50;3477227;40;103098;-38
2021/07/24 02:00:09;;;;;;;;;;;15.30;99.90;;;13.93;88.93;100776.75;3470531;39;104313;-38
2021/07/24 02:02:48;;;;;;;;;;;15.20;99.90;;;13.92;89.05;100780.53;3470078;40;102863;-39
2021/07/24 02:05:44;;;;;;;;;;;15.20;99.90;;;13.89;88.79;100776.38;3477109;40;102426;-40
2021/07/24 02:08:17;;;;;;;;;;;15.20;99.90;;;13.87;88.88;100775.78;3477180;40;103266;-38
2021/07/24 02:10:46;;;;;;;;;;;15.20;99.90;;;13.78;89.26;100769.81;3470867;39;102403;-39
2021/07/24 02:13:14;;;;;;;;;;;15.10;99.90;;;13.77;89.17;100778.25;3471041;39;102257;-39
2021/07/24 02:15:42;;;;;;;;;;;15.10;99.90;;;13.75;89.39;100773.00;3477940;40;104360;-38
2021/07/24 02:18:17;;;;;;;;;;;15.10;99.90;;;13.73;89.44;100771.56;3470787;39;102291;-38
2021/07/24 02:20:51;;;;;;;;;;;15.00;99.90;;;13.68;89.27;100779.66;3477000;40;102508;-39
2021/07/24 02:23:19;;;;;;;;;;;15.00;99.90;;;13.64;89.52;100782.88;3476982;40;104229;-39
2021/07/24 02:25:47;;;;;;;;;;;15.00;99.90;;;13.59;89.60;100774.53;3470917;39;102437;-38
2021/07/24 02:28:14;;;;;;;;;;;14.90;99.90;;;13.55;89.56;100765.09;3476731;40;103214;-39
2021/07/24 02:30:42;;;;;;;;;;;14.90;99.90;;;13.52;89.75;100765.53;3470203;40;102378;-39
2021/07/24 02:33:10;;;;;;;;;;;14.90;99.90;;;13.51;90.02;100756.50;3470951;39;102318;-39
2021/07/24 02:35:37;;;;;;;;;;;14.80;99.90;;;13.50;90.08;100751.25;3471050;40;102705;-38
2021/07/24 02:38:18;;;;;;;;;;;14.80;99.90;;;13.47;90.20;100744.34;3476963;40;102110;-38
2021/07/24 02:40:47;;;;;;;;;;;14.80;99.90;;;13.44;90.28;100735.75;3476669;40;104799;-39
2021/07/24 02:43:16;;;;;;;;;;;14.80;99.90;;;13.43;90.29;100737.66;3469644;40;104019;-39
2021/07/24 02:45:43;;;;;;;;;;;14.80;99.90;;;13.42;90.77;100722.25;3469635;40;102798;-38
2021/07/24 02:48:12;;;;;;;;;;;14.70;99.90;;;13.45;91.32;100712.75;3470794;39;102340;-39
2021/07/24 02:50:58;;;;;;;;;;;14.80;99.90;;;13.43;91.52;100703.94;3476987;40;102440;-39
2021/07/24 02:53:26;;;;;;;;;;;14.80;99.90;;;13.43;91.65;100703.94;3476641;39;103557;-38
2021/07/24 02:55:54;;;;;;;;;;;14.80;99.90;;;13.40;91.29;100691.53;3470871;39;102284;-38
2021/07/24 02:58:21;;;;;;;;;;;14.70;99.90;;;13.47;91.52;100683.19;3476534;40;104605;-38
2021/07/24 03:00:49;;;;;;;;;;;14.80;99.90;;;13.43;91.17;100677.38;3476782;40;104252;-38
2021/07/24 03:03:16;;;;;;;;;;;14.80;99.90;;;13.42;91.04;100669.34;3471159;39;102085;-39
2021/07/24 03:05:44;;;;;;;;;;;14.70;99.90;;;13.37;90.96;100659.94;3470842;39;102320;-38
2021/07/24 03:08:11;;;;;;;;;;;14.70;99.90;;;13.37;91.30;100662.66;3471208;39;103075;-38
2021/07/24 03:10:38;;;;;;;;;;;14.70;99.90;;;13.37;91.42;100668.16;3470729;39;103637;-39
2021/07/24 03:13:06;;;;;;;;;;;14.70;99.90;;;13.40;91.96;100672.34;3470614;39;102304;-39
2021/07/24 03:15:33;;;;;;;;;;;14.70;99.90;;;13.35;91.98;100675.78;3470408;39;102432;-39
2021/07/24 03:18:00;;;;;;;;;;;14.70;99.90;;;13.33;92.19;100688.88;3470077;40;104009;-38
2021/07/24 03:20:27;;;;;;;;;;;14.70;99.90;;;13.30;92.36;100683.88;3470636;40;103006;-38
2021/07/24 03:22:55;;;;;;;;;;;14.60;99.90;;;13.27;92.30;100681.59;3471240;39;102206;-38
2021/07/24 03:25:22;;;;;;;;;;;14.60;99.90;;;13.23;92.51;100675.75;3470429;39;102808;-40
2021/07/24 03:27:50;;;;;;;;;;;14.60;99.90;;;13.22;92.40;100674.06;3470845;39;102120;-38
2021/07/24 03:30:17;;;;;;;;;;;14.60;99.90;;;13.18;92.40;100663.81;3470095;40;102242;-39
2021/07/24 03:32:44;;;;;;;;;;;14.60;99.90;;;13.18;92.17;100659.19;3470601;40;103083;-38
2021/07/24 03:35:12;;;;;;;;;;;14.50;99.90;;;13.16;92.29;100658.59;3470798;39;102601;-39
2021/07/24 03:37:39;;;;;;;;;;;14.50;99.90;;;13.18;92.32;100658.34;3469825;40;103164;-38
2021/07/24 03:40:07;;;;;;;;;;;14.50;99.90;;;13.17;92.25;100643.81;3469645;40;102237;-38
2021/07/24 03:42:34;;;;;;;;;;;14.50;99.90;;;13.20;92.60;100632.38;3470854;39;102949;-38
2021/07/24 03:45:01;;;;;;;;;;;14.50;99.90;;;13.22;92.74;100635.72;3470694;39;102424;-38
2021/07/24 03:47:28;;;;;;;;;;;14.60;99.90;;;13.27;93.29;100640.50;3469569;40;103038;-38
2021/07/24 03:49:57;;;;;;;;;;;14.60;99.90;;;13.34;93.38;100648.59;3469547;40;102693;-39
2021/07/24 03:52:24;;;;;;;;;;;14.60;99.90;;;13.35;93.38;100648.38;3470375;40;102321;-39
2021/07/24 03:54:51;;;;;;;;;;;14.60;99.90;;;13.42;93.65;100655.66;3470063;40;102360;-38
2021/07/24 03:57:19;;;;;;;;;;;14.70;99.90;;;13.48;93.86;100658.31;3469565;40;103052;-38
2021/07/24 03:59:46;;;;;;;;;;;14.70;99.90;;;13.61;94.33;100661.91;3470767;40;102911;-38
2021/07/24 04:02:18;;;;;;;;;;;14.80;99.90;;;13.69;94.05;100650.59;3470445;40;102732;-38
2021/07/24 04:04:50;;;;;;;;;;;14.90;99.90;;;13.76;93.93;100639.50;3470055;40;102304;-38
2021/07/24 04:07:20;;;;;;;;;;;15.00;99.90;;;13.86;93.91;100645.22;3470542;40;103265;-38
2021/07/24 04:09:48;;;;;;;;;;;15.10;99.90;;;13.97;94.00;100648.19;3469618;40;102586;-39
2021/07/24 04:12:15;;;;;;;;;;;15.20;99.90;;;14.03;93.59;100652.72;3469362;40;104032;-39
2021/07/24 04:14:45;;;;;;;;;;;15.20;99.90;;;14.13;93.67;100654.84;3469724;40;102412;-38
2021/07/24 04:17:12;;;;;;;;;;;15.40;99.90;;;14.18;93.38;100647.59;3469537;40;103176;-38
2021/07/24 04:19:40;;;;;;;;;;;15.40;99.90;;;14.24;93.51;100632.88;3470113;40;102680;-39
2021/07/24 04:22:07;;;;;;;;;;;15.50;99.90;;;14.28;93.84;100633.25;3469884;39;102167;-39
2021/07/24 04:24:34;;;;;;;;;;;15.50;99.90;;;14.36;93.84;100641.09;3470235;39;102073;-39
2021/07/24 04:27:02;;;;;;;;;;;15.50;99.90;;;14.39;93.64;100654.34;3469446;40;102329;-38
2021/07/24 04:29:29;;;;;;;;;;;15.60;99.90;;;14.43;93.63;100651.94;3470006;39;102434;-38
2021/07/24 04:31:57;;;;;;;;;;;15.60;99.90;;;14.49;93.50;100645.47;3469747;40;102194;-38
2021/07/24 04:34:25;;;;;;;;;;;15.70;99.90;;;14.56;93.64;100644.50;3469224;40;102894;-38
2021/07/24 04:36:52;;;;;;;;;;;15.70;99.90;;;14.64;92.59;100644.94;3470213;39;102306;-39
2021/07/24 04:39:19;;;;;;;;;;;15.80;99.90;;;14.71;91.62;100641.25;3469871;40;102287;-39
2021/07/24 04:41:46;;;;;;;;;;;15.90;99.90;;;14.77;91.45;100651.28;3469345;40;104217;-39
2021/07/24 04:44:14;;;;;;;;;;;15.90;99.90;;;14.88;92.02;100655.06;3470128;39;102419;-39
2021/07/24 04:46:41;;;;;;;;;;;16.00;99.90;;;14.93;91.57;100660.66;3469267;40;103398;-39
2021/07/24 04:49:08;;;;;;;;;;;16.10;99.90;;;15.00;91.97;100655.81;3469775;40;102420;-39
2021/07/24 04:51:36;;;;;;;;;;;16.10;99.90;;;15.06;92.05;100656.75;3469899;40;102390;-38
2021/07/24 04:54:04;;;;;;;;;;;16.20;99.90;;;15.15;92.41;100665.44;3469607;40;102462;-38
2021/07/24 04:56:32;;;;;;;;;;;16.20;99.90;;;15.21;92.46;100672.69;3469371;40;103047;-39
2021/07/24 04:59:01;;;;;;;;;;;16.30;99.90;;;15.27;92.68;100671.69;3469980;39;102384;-39
2021/07/24 05:01:28;;;;;;;;;;;16.40;99.90;;;15.35;92.37;100674.03;3469137;40;103026;-38
2021/07/24 05:03:57;;;;;;;;;;;16.50;99.90;;;15.38;92.55;100661.72;3470133;39;102123;-38
2021/07/24 05:06:25;;;;;;;;;;;16.50;99.90;;;15.50;92.95;100667.13;3470511;40;103192;-39
2021/07/24 05:08:52;;;;;;;;;;;16.60;99.90;;;15.58;93.05;100663.97;3470887;40;102106;-39
2021/07/24 05:11:20;;;;;;;;;;;16.60;99.90;;;15.67;92.81;100659.72;3471035;40;102112;-39
2021/07/24 05:13:47;;;;;;;;;;;16.70;99.90;;;15.74;92.78;100654.03;3471587;40;102278;-39
2021/07/24 05:16:17;;;;;;;;;;;16.80;99.90;;;15.83;91.68;100657.19;3470235;40;104178;-39
2021/07/24 05:18:44;;;;;;;;;;;16.90;99.90;;;15.93;91.46;100643.66;3470802;40;102447;-39
2021/07/24 05:21:16;;;;;;;;;;;17.00;99.90;;;16.04;91.35;100641.03;3470856;40;103152;-39
2021/07/24 05:23:44;;;;;;;;;;;17.00;99.90;;;16.16;91.16;100647.22;3470658;40;102404;-39
2021/07/24 05:26:15;;;;;;;;;;;17.10;99.90;;;16.30;90.96;100633.13;3470785;40;102224;-39
2021/07/24 05:28:43;;;;;;;;;;;17.30;99.90;;;16.48;88.85;100626.44;3471192;40;102147;-39
2021/07/24 05:31:21;;;;;;;;;;;17.40;99.90;;;16.62;86.49;100615.88;3470952;40;102328;-39
2021/07/24 05:33:49;;;;;;;;;;;17.50;99.90;;;16.76;84.67;100627.31;3471191;39;102888;-39
2021/07/24 05:36:16;;;;;;;;;;;17.70;99.90;;;16.85;84.20;100622.19;3471203;40;102778;-39
2021/07/24 05:38:43;;;;;;;;;;;17.80;99.90;;;16.94;83.86;100615.94;3471007;40;102180;-38
2021/07/24 05:41:10;;;;;;;;;;;17.90;99.90;;;17.10;83.30;100605.06;3470239;40;103041;-38
2021/07/24 05:43:38;;;;;;;;;;;18.00;99.90;;;17.22;82.65;100599.38;3471034;39;102288;-38
2021/07/24 05:46:05;;;;;;;;;;;18.10;99.90;;;17.34;82.92;100605.56;3471195;40;103248;-39
2021/07/24 05:48:32;;;;;;;;;;;18.20;99.90;;;17.40;82.28;100612.78;3470893;40;102202;-39
2021/07/24 05:51:06;;;;;;;;;;;18.30;99.90;;;17.48;82.27;100621.66;3470673;40;102455;-39
2021/07/24 05:53:33;;;;;;;;;;;18.40;99.90;;;17.56;82.20;100615.66;3470422;40;102845;-39
2021/07/24 05:56:01;;;;;;;;;;;18.50;99.90;;;17.63;82.15;100616.25;3471041;39;102122;-41
2021/07/24 05:58:28;;;;;;;;;;;18.50;99.90;;;17.64;79.06;100614.34;3470100;40;102854;-39
2021/07/24 06:00:56;;;;;;;;;;;18.60;99.90;;;17.74;80.98;100613.56;3470821;39;103011;-38
2021/07/24 06:03:23;;;;;;;;;;;18.60;99.90;;;17.84;82.57;100616.41;3471295;40;102677;-38
2021/07/24 06:05:50;;;;;;;;;;;18.70;99.90;;;17.98;83.14;100605.72;3471258;39;102176;-38
2021/07/24 06:08:18;;;;;;;;;;;18.80;99.90;;;18.06;81.13;100615.47;3470952;40;102347;-39
2021/07/24 06:10:45;;;;;;;;;;;18.90;99.90;;;18.11;78.08;100609.97;3470368;40;103934;-38
2021/07/24 06:13:13;;;;;;;;;;;19.00;99.90;;;18.30;80.80;100606.72;3471177;40;102525;-39
2021/07/24 06:15:43;;;;;;;;;;;19.10;99.90;;;18.38;77.35;100592.41;3470533;40;102166;-39
2021/07/24 06:18:10;;;;;;;;;;;19.30;99.90;;;18.52;76.85;100596.28;3470555;40;102452;-39
2021/07/24 06:20:37;;;;;;;;;;;19.40;99.90;;;18.52;74.97;100588.00;3470912;40;102372;-39
2021/07/24 06:23:05;;;;;;;;;;;19.40;99.90;;;18.69;75.48;100592.47;3470945;40;102464;-39
2021/07/24 06:25:33;;;;;;;;;;;19.50;99.90;;;18.71;73.93;100581.19;3470274;40;103325;-38
2021/07/24 06:28:00;;;;;;;;;;;19.60;99.90;;;18.81;75.51;100586.72;3470229;40;102818;-39
2021/07/24 06:30:28;;;;;;;;;;;19.70;99.90;;;18.96;75.82;100583.13;3470720;40;103268;-38
2021/07/24 06:32:55;;;;;;;;;;;19.80;99.90;;;18.98;74.58;100572.66;3471052;40;102238;-39
2021/07/24 06:35:23;;;;;;;;;;;19.90;99.90;;;19.00;73.06;100575.16;3470576;40;102791;-39
2021/07/24 06:37:51;;;;;;;;;;;19.90;99.90;;;19.10;73.09;100572.38;3470819;39;102585;-39
2021/07/24 06:40:19;;;;;;;;;;;20.00;99.90;;;19.17;72.06;100574.88;3470968;40;102400;-39
2021/07/24 06:42:47;;;;;;;;;;;20.00;99.90;;;19.24;72.34;100578.19;3470198;40;102950;-39
2021/07/24 06:45:14;;;;;;;;;;;20.10;99.90;;;19.30;73.29;100579.84;3470548;40;102290;-39
2021/07/24 06:47:42;;;;;;;;;;;20.20;99.90;;;19.36;73.61;100578.75;3470718;40;102378;-39
2021/07/24 06:50:09;;;;;;;;;;;20.20;99.90;;;19.43;73.69;100575.69;3470862;40;102185;-39
2021/07/24 06:52:38;;;;;;;;;;;20.30;99.90;;;19.52;75.14;100575.94;3470179;40;102237;-39
2021/07/24 06:55:06;;;;;;;;;;;20.30;99.90;;;19.53;73.06;100584.00;3470714;40;102277;-39
2021/07/24 06:57:33;;;;;;;;;;;20.40;99.90;;;19.55;72.72;100576.22;3470945;40;102555;-39
2021/07/24 07:00:01;;;;;;;;;;;20.40;99.90;;;19.59;72.33;100570.13;3471145;40;102338;-40
2021/07/24 07:02:28;;;;;;;;;;;20.50;99.90;;;19.64;73.37;100561.81;3470078;40;102182;-39
2021/07/24 07:04:55;;;;;;;;;;;20.50;99.90;;;19.63;71.40;100547.19;3470913;39;102313;-39
2021/07/24 07:07:23;;;;;;;;;;;20.50;99.90;;;19.69;72.75;100551.59;3470437;40;102947;-39
2021/07/24 07:09:50;;;;;;;;;;;20.50;99.90;;;19.75;73.56;100541.31;3470834;40;102290;-40
2021/07/24 07:12:18;;;;;;;;;;;20.60;99.90;;;19.75;71.76;100535.78;3470878;40;102300;-39
2021/07/24 07:14:45;;;;;;;;;;;20.60;99.90;;;19.80;72.93;100540.47;3470268;40;102291;-39
2021/07/24 07:17:14;;;;;;;;;;;20.70;99.90;;;19.84;72.28;100531.34;3470548;40;102148;-39
2021/07/24 07:19:42;;;;;;;;;;;20.70;99.90;;;19.88;71.45;100514.16;3470594;40;103034;-39
2021/07/24 07:22:09;;;;;;;;;;;20.80;99.90;;;19.96;73.01;100516.34;3470825;40;102281;-39
2021/07/24 07:24:37;;;;;;;;;;;20.80;99.90;;;20.01;72.99;100509.97;3470284;40;105120;-39
2021/07/24 07:27:04;;;;;;;;;;;20.90;99.90;;;20.11;72.59;100512.69;3469829;40;102852;-38
2021/07/24 07:29:32;;;;;;;;;;;21.00;99.90;;;20.19;71.17;100512.13;3470910;40;102350;-38
2021/07/24 07:32:00;;;;;;;;;;;21.10;99.90;;;20.29;71.28;100499.31;3470485;40;102646;-39
2021/07/24 07:34:28;;;;;;;;;;;21.10;99.90;;;20.49;72.73;100501.97;3470639;39;102393;-39
2021/07/24 07:36:56;;;;;;;;;;;21.30;99.90;;;20.58;70.69;100496.63;3470762;40;102870;-39
2021/07/24 07:39:24;;;;;;;;;;;21.40;99.90;;;20.62;68.79;100486.63;3469882;40;102843;-39
2021/07/24 07:41:51;;;;;;;;;;;21.40;99.90;;;20.58;67.47;100485.56;3470382;40;102554;-38
2021/07/24 07:44:18;;;;;;;;;;;21.40;99.90;;;20.55;67.81;100483.34;3469860;40;102984;-39
2021/07/24 07:46:45;;;;;;;;;;;21.40;99.90;;;20.80;70.36;100484.28;3470305;40;102334;-39
2021/07/24 07:49:13;;;;;;;;;;;21.50;99.90;;;21.07;71.68;100482.94;3470869;39;103298;-39
2021/07/24 07:51:40;;;;;;;;;;;21.70;99.90;;;21.31;69.96;100485.78;3660783;22;102460;-41
2021/07/24 07:54:08;;;;;;;;;;;21.90;99.90;;;21.60;65.66;100481.28;3549954;39;103085;-40
2021/07/24 07:56:35;;;;;;;;;;;22.10;99.90;;;21.72;64.15;100483.66;3550016;39;102390;-40
2021/07/24 07:59:02;;;;;;;;;;;22.30;99.90;;;21.85;68.11;100477.41;3549700;39;102502;-40
2021/07/24 08:01:30;;;;;;;;;;;22.50;99.90;;;21.85;66.56;100474.63;3550021;39;102367;-40
2021/07/24 08:03:57;;;;;;;;;;;22.50;99.90;;;21.86;68.06;100483.78;3550038;39;102280;-37
2021/07/24 08:06:24;;;;;;;;;;;22.50;99.90;;;21.89;65.21;100478.47;3550090;39;102323;-40
2021/07/24 08:08:52;;;;;;;;;;;22.60;99.90;;;21.87;64.65;100491.81;3549859;39;103153;-40
2021/07/24 08:11:19;;;;;;;;;;;22.60;99.90;;;21.70;62.24;100492.31;3550419;39;102306;-40
2021/07/24 08:13:46;;;;;;;;;;;22.60;99.90;;;21.67;63.45;100487.34;3550088;39;102337;-43
2021/07/24 08:16:16;;;;;;;;;;;22.50;99.90;;;21.74;66.95;100490.59;3550019;39;102270;-40
2021/07/24 08:18:44;;;;;;;;;;;22.50;99.90;;;21.80;64.64;100496.91;3550059;39;102251;-40
2021/07/24 08:21:11;;;;;;;;;;;22.50;99.90;;;21.88;64.09;100492.63;3550378;39;102439;-41
2021/07/24 08:23:38;;;;;;;;;;;22.60;99.90;;;21.95;63.83;100493.13;3549893;39;102795;-40
2021/07/24 08:26:06;;;;;;;;;;;22.70;99.90;;;22.05;63.68;100486.59;3549864;39;102448;-40
2021/07/24 08:28:33;;;;;;;;;;;22.70;99.90;;;22.23;65.23;100487.75;3550380;39;102253;-40
2021/07/24 08:31:00;;;;;;;;;;;22.90;99.90;;;22.38;65.60;100487.50;3549682;39;102382;-40
2021/07/24 08:33:28;;;;;;;;;;;23.00;99.90;;;22.52;62.56;100482.03;3549999;39;102403;-40
2021/07/24 08:35:55;;;;;;;;;;;23.10;99.90;;;22.56;65.71;100487.81;3549856;39;102501;-38
2021/07/24 08:38:23;;;;;;;;;;;23.20;99.90;;;22.69;65.43;100494.56;3549849;39;103256;-40
2021/07/24 08:40:50;;;;;;;;;;;23.30;99.90;;;22.77;64.88;100496.66;3549902;39;102491;-44
2021/07/24 08:43:17;;;;;;;;;;;23.40;99.90;;;22.87;64.77;100498.44;3551980;39;103253;-40
2021/07/24 08:45:45;;;;;;;;;;;23.40;99.90;;;23.13;67.01;100495.22;3551552;39;102350;-40
2021/07/24 08:48:12;;;;;;;;;;;23.70;99.90;;;23.39;64.03;100497.56;3551437;39;104084;-43
2021/07/24 08:50:43;;;;;;;;;;;23.90;99.90;;;23.48;61.37;100498.53;3551272;39;102416;-40
2021/07/24 08:53:11;;;;;;;;;;;24.00;99.90;;;23.54;62.16;100497.28;3551367;39;103379;-42
2021/07/24 08:55:41;;;;;;;;;;;24.20;99.90;;;23.65;61.68;100502.63;3551305;39;102584;-40
2021/07/24 08:58:13;;;;;;;;;;;24.20;99.90;;;23.63;60.03;100502.13;3551616;39;103145;-40
2021/07/24 09:00:43;;;;;;;;;;;24.20;99.90;;;23.70;60.13;100505.31;3550666;39;102234;-40
2021/07/24 09:03:17;;;;;;;;;;;24.30;99.90;;;23.68;63.74;100500.06;3551729;39;103173;-43
2021/07/24 09:05:49;;;;;;;;;;;24.30;99.90;;;23.79;63.04;100497.06;3551085;39;102396;-40
2021/07/24 09:08:17;;;;;;;;;;;24.40;99.90;;;23.86;60.61;100494.69;3551590;39;102759;-40
2021/07/24 09:10:47;;;;;;;;;;;24.40;99.90;;;23.79;62.82;100497.91;3551173;39;102480;-40
2021/07/24 09:13:15;;;;;;;;;;;24.40;99.90;;;23.75;63.79;100504.38;3551409;39;103405;-40
2021/07/24 09:15:43;;;;;;;;;;;24.30;99.90;;;23.71;64.62;100506.97;3551158;39;102088;-40
2021/07/24 09:18:10;;;;;;;;;;;24.30;99.90;;;23.75;61.71;100496.88;3551474;39;102205;-40
2021/07/24 09:20:41;;;;;;;;;;;24.30;99.90;;;23.69;62.35;100498.94;3551117;39;103134;-40
2021/07/24 09:23:35;;;;;;;;;;;24.30;99.90;;;23.61;60.68;100502.44;3551491;39;104119;-40
2021/07/24 09:26:06;;;;;;;;;;;24.20;99.90;;;23.48;60.67;100503.25;3551630;39;102396;-38
2021/07/24 09:28:34;;;;;;;;;;;24.20;99.90;;;23.34;60.03;100497.66;3551370;39;102221;-37
2021/07/24 09:31:20;;;;;;;;;;;24.00;99.90;;;23.20;61.26;100517.09;3551396;39;102279;-40
2021/07/24 09:33:51;;;;;;;;;;;23.90;99.90;;;23.02;67.96;100518.81;3551208;39;102190;-40
2021/07/24 09:36:34;;;;;;;;;;;23.80;99.90;;;22.91;68.46;100523.72;3551137;39;102264;-41
2021/07/24 09:39:13;;;;;;;;;;;23.70;99.90;;;22.79;69.60;100522.19;3550864;39;102331;-40
2021/07/24 09:41:45;;;;;;;;;;;23.50;99.90;;;22.70;70.01;100513.75;3551104;39;102452;-40
2021/07/24 09:44:28;;;;;;;;;;;23.50;99.90;;;22.64;69.25;100514.13;3551006;39;103259;-40
2021/07/24 09:46:56;;;;;;;;;;;23.40;99.90;;;22.57;67.89;100506.16;3551594;39;102313;-42
2021/07/24 09:49:37;;;;;;;;;;;23.40;99.90;;;22.49;65.41;100501.28;3551126;39;102190;-41
2021/07/24 09:52:11;;;;;;;;;;;23.40;99.90;;;22.38;64.14;100506.13;3550347;39;102403;-41
2021/07/24 09:54:39;;;;;;;;;;;23.30;99.90;;;22.44;64.86;100506.91;3550775;39;102303;-40
2021/07/24 09:57:07;;;;;;;;;;;23.30;99.90;;;22.39;64.19;100508.59;3550929;39;102254;-40
2021/07/24 09:59:35;;;;;;;;;;;23.20;99.90;;;22.54;64.76;100510.38;3550213;39;103317;-41
2021/07/24 10:02:07;;;;;;;;;;;23.30;99.90;;;22.63;65.29;100518.84;3550698;39;102380;-41
2021/07/24 10:04:39;;;;;;;;;;;23.30;99.90;;;22.65;63.31;100510.22;3550798;39;102182;-37
2021/07/24 10:07:29;;;;;;;;;;;23.40;99.90;;;22.81;64.50;100519.97;3550459;39;102205;-41
2021/07/24 10:09:58;;;;;;;;;;;23.50;99.90;;;22.90;62.74;100511.75;3550747;39;102312;-38
2021/07/24 10:12:25;;;;;;;;;;;23.60;99.90;;;23.02;62.96;100519.59;3550639;39;102434;-44
2021/07/24 10:14:53;;;;;;;;;;;23.70;99.90;;;23.16;62.23;100516.06;3550884;39;102392;-40
2021/07/24 10:17:20;;;;;;;;;;;23.80;99.90;;;23.23;60.86;100510.91;3551071;39;102561;-40
2021/07/24 10:19:48;;;;;;;;;;;23.90;99.90;;;23.34;62.10;100515.22;3550685;39;102217;-40
2021/07/24 10:22:18;;;;;;;;;;;24.00;99.90;;;23.35;61.07;100516.00;3551378;39;102290;-41
2021/07/24 10:24:45;;;;;;;;;;;24.00;99.90;;;23.29;61.24;100512.50;3550654;39;103072;-41
2021/07/24 10:27:18;;;;;;;;;;;24.00;99.90;;;23.16;60.54;100516.06;3550861;39;102650;-40
2021/07/24 10:30:15;;;;;;;;;;;23.90;99.90;;;23.11;61.88;100517.81;3550415;39;103347;-42
2021/07/24 10:32:43;;;;;;;;;;;23.90;99.90;;;23.12;61.92;100518.59;3546295;39;102391;-40
2021/07/24 10:35:10;;;;;;;;;;;23.80;99.90;;;23.17;64.02;100520.50;3550810;39;102413;-41
2021/07/24 10:37:42;;;;;;;;;;;23.90;99.90;;;23.11;62.01;100528.09;3550815;39;102255;-40
2021/07/24 10:40:24;;;;;;;;;;;23.80;99.90;;;22.89;60.51;100526.78;3550966;39;102397;-40
2021/07/24 10:42:52;;;;;;;;;;;23.80;99.90;;;22.80;62.04;100529.41;3550955;39;102414;-40
2021/07/24 10:45:31;;;;;;;;;;;23.70;99.90;;;22.52;61.61;100532.06;3550758;39;103190;-40
2021/07/24 10:48:13;;;;;;;;;;;23.50;99.90;;;22.52;63.25;100532.06;3551051;39;102374;-40
2021/07/24 10:50:49;;;;;;;;;;;23.40;99.90;;;22.58;64.60;100543.13;3550881;39;102491;-40
2021/07/24 10:53:17;;;;;;;;;;;23.40;99.90;;;22.51;63.62;100537.94;3551233;39;102296;-40
2021/07/24 10:55:47;;;;;;;;;;;23.40;99.90;;;22.42;64.46;100549.72;3550501;39;103126;-42
2021/07/24 10:58:16;;;;;;;;;;;23.30;99.90;;;22.31;64.01;100541.81;3550870;39;102533;-40
2021/07/24 11:00:54;;;;;;;;;;;23.20;99.90;;;22.24;62.03;100539.41;3550663;39;102458;-38
2021/07/24 11:03:41;;;;;;;;;;;23.20;99.90;;;22.05;63.04;100536.59;3550759;39;102298;-40
2021/07/24 11:06:26;;;;;;;;;;;23.00;99.90;;;22.02;64.07;100535.22;3550616;39;102285;-42
2021/07/24 11:09:01;;;;;;;;;;;23.00;99.90;;;21.85;62.28;100532.94;3550500;39;103048;-41
2021/07/24 11:11:48;;;;;;;;;;;22.80;99.90;;;21.80;64.08;100531.03;3550370;39;102169;-40
2021/07/24 11:14:34;;;;;;;;;;;22.80;99.90;;;21.74;64.88;100548.03;3550738;39;102351;-40
2021/07/24 11:17:08;;;;;;;;;;;22.70;99.90;;;21.76;67.64;100554.16;3550858;39;102337;-40
2021/07/24 11:19:43;;;;;;;;;;;22.70;99.90;;;21.77;67.25;100553.84;3550495;39;102358;-43